KSPW/SPW METAR and TAF weather

Enter ICAO airport designator
Station Type Date Time Source
KSPW METAR 2020/09/30 13:53 UTC NOAA

KSPW 301353Z AUTO 32014KT 10SM CLR 13/05 A2988 RMK AO2 SLP116 T01280050


Station Type Date Time Source
KSPW Decoded METAR 2020/09/30 13:53 UTC NOAA

SPENCER MUNICIPAL AIRPORT, IA, United States (KSPW) 43-10N 95-13W 403M
Sep 30, 2020 - 09:53 AM EDT / 2020.09.30 1353 UTC
Wind: from the NW (320 degrees) at 16 MPH (14 KT):0
Visibility: 10 mile(s):0
Sky conditions: clear
Temperature: 55.0 F (12.8 C)
Dew Point: 41.0 F (5.0 C)
Relative Humidity: 59%
Pressure (altimeter): 29.88 in. Hg (1011 hPa)
ob: KSPW 301353Z AUTO 32014KT 10SM CLR 13/05 A2988 RMK AO2 SLP116 T01280050
cycle: 14

Station Type Date Time Source
KSPW TAF UTC NOAA

Error!

Example: see airport list